createdAt,value
2024-04-09T00:00:01.881Z,3.6
2024-04-09T00:01:16.173Z,3.4
2024-04-09T00:02:30.465Z,3.6
2024-04-09T00:03:44.757Z,3.4
2024-04-09T00:04:59.049Z,3.7
2024-04-09T00:06:13.342Z,3.6
2024-04-09T00:07:26.650Z,3.8
2024-04-09T00:08:40.942Z,3.7
2024-04-09T00:09:55.234Z,4.2
2024-04-09T00:11:09.526Z,3.7
2024-04-09T00:12:23.818Z,3.8
2024-04-09T00:13:38.110Z,3.5
2024-04-09T00:14:52.402Z,3.9
2024-04-09T00:16:06.694Z,3.6
2024-04-09T00:17:20.986Z,3.5
2024-04-09T00:18:35.278Z,3.6
2024-04-09T00:19:49.571Z,3.6
2024-04-09T00:21:03.863Z,3.5
2024-04-09T00:22:18.155Z,3.9
2024-04-09T00:23:31.463Z,3.4
2024-04-09T00:24:45.755Z,3.4
2024-04-09T00:26:00.047Z,3.5
2024-04-09T00:27:14.340Z,3.6
2024-04-09T00:28:28.632Z,3.5
2024-04-09T00:29:42.925Z,3.5
2024-04-09T00:30:57.217Z,3.7
2024-04-09T00:32:11.509Z,3.4
2024-04-09T00:33:25.801Z,3.7
2024-04-09T00:34:40.093Z,3.3
2024-04-09T00:35:54.385Z,3.3
2024-04-09T00:37:08.677Z,3.7
2024-04-09T00:38:22.969Z,3.1
2024-04-09T00:39:36.278Z,3.2
2024-04-09T00:40:50.570Z,3.7
2024-04-09T00:42:04.862Z,3.5
2024-04-09T00:43:19.154Z,3.2
2024-04-09T00:44:33.447Z,3.4
2024-04-09T00:45:47.741Z,3.7
2024-04-09T00:47:02.033Z,3.6
2024-04-09T00:48:16.325Z,3.4
2024-04-09T00:49:30.617Z,3.4
2024-04-09T00:50:44.909Z,3.5
2024-04-09T00:51:59.201Z,3.4
2024-04-09T00:53:13.493Z,3.4
2024-04-09T00:54:27.786Z,3.5
2024-04-09T00:55:41.094Z,3.8
2024-04-09T00:56:55.386Z,3.6
2024-04-09T00:58:09.678Z,3.8
2024-04-09T00:59:23.971Z,3.6
2024-04-09T01:00:38.264Z,3.5
2024-04-09T01:01:52.556Z,3.6
2024-04-09T01:03:06.848Z,3.5
2024-04-09T01:04:21.140Z,3.7
2024-04-09T01:05:35.433Z,3.7
2024-04-09T01:06:49.725Z,3.9
2024-04-09T01:08:04.017Z,3.6
2024-04-09T01:09:18.309Z,3.8
2024-04-09T01:10:32.601Z,3.5
2024-04-09T01:11:45.910Z,3.7
2024-04-09T01:13:00.202Z,3.4
2024-04-09T01:14:14.494Z,3.4
2024-04-09T01:15:28.786Z,3.7
2024-04-09T01:16:43.079Z,3.5
2024-04-09T01:17:57.372Z,3.6
2024-04-09T01:19:11.664Z,3.7
2024-04-09T01:20:25.956Z,3.6
2024-04-09T01:21:40.248Z,3.7
2024-04-09T01:22:54.541Z,3.8
2024-04-09T01:24:08.833Z,3.9
2024-04-09T01:25:23.125Z,3.6
2024-04-09T01:26:37.418Z,3.7
2024-04-09T01:27:50.726Z,3.8
2024-04-09T01:29:05.018Z,3.9
2024-04-09T01:30:19.310Z,3.6
2024-04-09T01:31:33.602Z,4.1
2024-04-09T01:32:47.895Z,3.8
2024-04-09T01:34:02.187Z,3.7
2024-04-09T01:35:16.479Z,3.6
2024-04-09T01:36:30.771Z,3.5
2024-04-09T01:37:45.064Z,3.8
2024-04-09T01:38:59.356Z,4.3
2024-04-09T01:40:13.649Z,3.8
2024-04-09T01:41:27.941Z,3.9
2024-04-09T01:42:42.233Z,4.1
2024-04-09T01:43:55.542Z,4
2024-04-09T01:45:09.834Z,4.1
2024-04-09T01:46:24.126Z,4.2
2024-04-09T01:47:38.418Z,4.2
2024-04-09T01:48:52.711Z,4.1
2024-04-09T01:50:07.003Z,3.9
2024-04-09T01:51:21.295Z,4
2024-04-09T01:52:35.587Z,4.1
2024-04-09T01:53:49.879Z,4.4
2024-04-09T01:55:04.172Z,3.8
2024-04-09T01:56:18.464Z,3.9
2024-04-09T01:57:32.756Z,4
2024-04-09T01:58:47.049Z,4
2024-04-09T02:00:00.357Z,3.9
2024-04-09T02:01:14.649Z,3.8
2024-04-09T02:02:28.941Z,3.8
2024-04-09T02:03:43.234Z,3.6
2024-04-09T02:04:57.526Z,3.8
2024-04-09T02:06:11.818Z,3.9
2024-04-09T02:07:26.110Z,4
2024-04-09T02:08:40.402Z,4
2024-04-09T02:09:54.695Z,3.8
2024-04-09T02:11:08.987Z,4.2
2024-04-09T02:12:23.279Z,3.7
2024-04-09T02:13:37.571Z,4.1
2024-04-09T02:14:51.864Z,3.7
2024-04-09T02:16:05.172Z,3.9
2024-04-09T02:17:19.464Z,3.8
2024-04-09T02:18:33.756Z,3.8
2024-04-09T02:19:48.049Z,4.1
2024-04-09T02:21:02.341Z,3.9
2024-04-09T02:22:16.633Z,4.9
2024-04-09T02:23:30.925Z,4.1
2024-04-09T02:24:45.218Z,4.2
2024-04-09T02:25:59.510Z,4.4
2024-04-09T02:27:13.802Z,4.6
2024-04-09T02:28:28.094Z,4.2
2024-04-09T02:29:42.386Z,4.3
2024-04-09T02:30:56.679Z,4.2
2024-04-09T02:32:09.987Z,4
2024-04-09T02:33:24.279Z,4.4
2024-04-09T02:34:38.572Z,4.5
2024-04-09T02:35:52.864Z,4.4
2024-04-09T02:37:07.156Z,4.5
2024-04-09T02:38:21.448Z,4.5
2024-04-09T02:39:35.740Z,4.6
2024-04-09T02:40:50.032Z,4.8
2024-04-09T02:42:04.325Z,4.5
2024-04-09T02:43:18.617Z,4.4
2024-04-09T02:44:32.909Z,4.2
2024-04-09T02:45:47.201Z,4.5
2024-04-09T02:47:01.494Z,4.6
2024-04-09T02:48:14.802Z,4.7
2024-04-09T02:49:29.094Z,4.8
2024-04-09T02:50:43.386Z,4.1
2024-04-09T02:51:57.679Z,4.8
2024-04-09T02:53:11.971Z,4.2
2024-04-09T02:54:26.263Z,4.2
2024-04-09T02:55:39.577Z,4.5
2024-04-09T02:56:53.869Z,4.2
2024-04-09T02:58:08.161Z,4.4
2024-04-09T02:59:22.453Z,4.6
2024-04-09T03:00:36.746Z,4.3
2024-04-09T03:01:51.038Z,4.3
2024-04-09T03:03:05.330Z,4.2
2024-04-09T03:04:19.623Z,4.3
2024-04-09T03:05:33.915Z,4
2024-04-09T03:06:48.207Z,4.3
2024-04-09T03:08:02.500Z,4.5
2024-04-09T03:09:16.792Z,4.2
2024-04-09T03:10:31.085Z,4.5
2024-04-09T03:11:44.393Z,4.3
2024-04-09T03:12:58.685Z,4.1
2024-04-09T03:14:12.977Z,4.2
2024-04-09T03:15:27.270Z,4.1
2024-04-09T03:16:41.562Z,4.3
2024-04-09T03:17:55.854Z,4.2
2024-04-09T03:19:10.147Z,4.3
2024-04-09T03:20:24.439Z,4.3
2024-04-09T03:21:38.731Z,4.2
2024-04-09T03:22:53.023Z,4.7
2024-04-09T03:24:07.315Z,4.7
2024-04-09T03:25:21.608Z,4.4
2024-04-09T03:26:35.900Z,4.2
2024-04-09T03:27:49.209Z,4.1
2024-04-09T03:29:03.501Z,4.1
2024-04-09T03:30:17.793Z,4.3
2024-04-09T03:31:32.085Z,4.3
2024-04-09T03:32:46.377Z,4.5
2024-04-09T03:34:00.670Z,4.2
2024-04-09T03:35:14.962Z,4.5
2024-04-09T03:36:29.254Z,4
2024-04-09T03:37:43.547Z,4
2024-04-09T03:38:57.839Z,4.5
2024-04-09T03:40:12.131Z,4.6
2024-04-09T03:41:26.423Z,5.2
2024-04-09T03:42:40.716Z,4.2
2024-04-09T03:43:54.024Z,4.4
2024-04-09T03:45:08.316Z,4.3
2024-04-09T03:46:22.608Z,4.4
2024-04-09T03:47:36.901Z,4.1
2024-04-09T03:48:51.193Z,4.2
2024-04-09T03:50:05.485Z,4.2
2024-04-09T03:51:19.777Z,4.3
2024-04-09T03:52:34.070Z,4.3
2024-04-09T03:53:48.362Z,4.1
2024-04-09T03:55:02.654Z,5.2
2024-04-09T03:56:16.947Z,4.3
2024-04-09T03:57:31.185Z,4
2024-04-09T03:58:45.478Z,4
2024-04-09T03:59:58.743Z,4
2024-04-09T04:01:12.981Z,4
2024-04-09T04:02:27.274Z,3.7
2024-04-09T04:03:41.567Z,3.7
2024-04-09T04:04:55.859Z,3.7
2024-04-09T04:06:10.109Z,4.1
2024-04-09T04:07:24.347Z,3.9
2024-04-09T04:08:38.586Z,3.8
2024-04-09T04:09:52.824Z,3.6
2024-04-09T04:11:07.062Z,3.8
2024-04-09T04:12:21.300Z,3.5
2024-04-09T04:13:35.538Z,3.7
2024-04-09T04:14:49.777Z,3.6
2024-04-09T04:16:03.031Z,3.8
2024-04-09T04:17:17.269Z,3.9
2024-04-09T04:18:31.508Z,3.6
2024-04-09T04:19:45.746Z,3.6
2024-04-09T04:20:59.984Z,3.5
2024-04-09T04:22:14.223Z,3.6
2024-04-09T04:23:28.461Z,3.7
2024-04-09T04:24:42.699Z,3.3
2024-04-09T04:25:56.937Z,3.3
2024-04-09T04:27:11.176Z,3.5
2024-04-09T04:28:25.414Z,3.3
2024-04-09T04:29:39.652Z,3.1
2024-04-09T04:30:53.891Z,3.2
2024-04-09T04:32:07.145Z,3.3
2024-04-09T04:33:21.383Z,3.3
2024-04-09T04:34:35.621Z,3.2
2024-04-09T04:35:49.860Z,3.3
2024-04-09T04:37:04.098Z,3.3
2024-04-09T04:38:18.336Z,3.3
2024-04-09T04:39:32.574Z,3.4
2024-04-09T04:40:46.813Z,3.3
2024-04-09T04:42:01.051Z,3.1
2024-04-09T04:44:29.528Z,3.3
2024-04-09T04:45:43.766Z,3.2
2024-04-09T04:46:58.004Z,3.2
2024-04-09T04:48:11.258Z,3.3
2024-04-09T04:49:25.497Z,3.1
2024-04-09T04:50:39.735Z,3.1
2024-04-09T04:51:53.974Z,3.3
2024-04-09T04:53:08.212Z,2.8
2024-04-09T04:55:36.688Z,3.2
2024-04-09T04:56:50.926Z,3.2
2024-04-09T04:58:05.165Z,3.2
2024-04-09T04:59:19.403Z,3.1
2024-04-09T05:00:33.641Z,3.3
2024-04-09T05:01:47.880Z,3.2
2024-04-09T05:03:02.118Z,3.1
2024-04-09T05:04:15.372Z,3
2024-04-09T05:05:29.611Z,2.9
2024-04-09T05:06:43.849Z,3.3
2024-04-09T05:07:58.087Z,3.2
2024-04-09T05:09:12.325Z,3
2024-04-09T05:10:26.563Z,2.9
2024-04-09T05:11:40.802Z,3.3
2024-04-09T05:12:55.040Z,3.1
2024-04-09T05:14:09.278Z,3.1
2024-04-09T05:15:23.517Z,2.9
2024-04-09T05:16:37.755Z,3
2024-04-09T05:17:51.993Z,3.1
2024-04-09T05:19:06.231Z,3
2024-04-09T05:20:19.486Z,2.9
2024-04-09T05:21:33.724Z,3.1
2024-04-09T05:22:47.962Z,3
2024-04-09T05:24:02.201Z,3
2024-04-09T05:25:16.439Z,3.1
2024-04-09T05:26:30.677Z,3
2024-04-09T05:27:44.916Z,2.9
2024-04-09T05:28:59.154Z,3.1
2024-04-09T05:30:13.392Z,3.1
2024-04-09T05:31:27.630Z,3.3
2024-04-09T05:32:41.868Z,3.2
2024-04-09T05:33:56.107Z,2.9
2024-04-09T05:35:10.345Z,2.9
2024-04-09T05:36:23.600Z,2.9
2024-04-09T05:37:37.838Z,3.2
2024-04-09T05:38:52.076Z,2.8
2024-04-09T05:40:06.314Z,3
2024-04-09T05:41:20.552Z,2.9
2024-04-09T05:42:34.780Z,3.2
2024-04-09T05:43:49.029Z,3
2024-04-09T05:45:03.267Z,2.8
2024-04-09T05:46:17.505Z,3.2
2024-04-09T05:47:31.744Z,3.3
2024-04-09T05:48:45.982Z,3.4
2024-04-09T05:50:00.220Z,3.4
2024-04-09T05:51:14.458Z,3.3
2024-04-09T05:52:27.712Z,3.2
2024-04-09T05:53:41.951Z,3.4
2024-04-09T05:54:56.189Z,3.1
2024-04-09T05:56:10.428Z,3
2024-04-09T05:57:24.666Z,3
2024-04-09T05:58:38.905Z,3.1
2024-04-09T05:59:53.143Z,3.1
2024-04-09T06:01:07.381Z,3.3
2024-04-09T06:02:21.619Z,3.5
2024-04-09T06:03:35.857Z,3.2
2024-04-09T06:04:50.095Z,2.9
2024-04-09T06:06:04.334Z,3
2024-04-09T06:07:18.572Z,3.1
2024-04-09T06:08:31.826Z,3
2024-04-09T06:09:46.064Z,2.8
2024-04-09T06:11:00.303Z,3.1
2024-04-09T06:12:14.541Z,3
2024-04-09T06:13:28.779Z,3.1
2024-04-09T06:14:43.017Z,2.9
2024-04-09T06:15:57.255Z,3.1
2024-04-09T06:17:11.494Z,2.9
2024-04-09T06:18:25.733Z,2.9
2024-04-09T06:19:39.971Z,2.8
2024-04-09T06:20:54.209Z,2.6
2024-04-09T06:22:08.447Z,2.6
2024-04-09T06:23:22.685Z,2.9
2024-04-09T06:24:35.940Z,2.8
2024-04-09T06:25:50.178Z,2.6
2024-04-09T06:27:04.416Z,2.9
2024-04-09T06:28:18.655Z,3
2024-04-09T06:29:32.893Z,2.7
2024-04-09T06:30:47.123Z,2.9
2024-04-09T06:32:01.369Z,2.9
2024-04-09T06:33:15.608Z,2.5
2024-04-09T06:34:29.846Z,2.6
2024-04-09T06:35:44.085Z,2.8
2024-04-09T06:36:58.323Z,2.6
2024-04-09T06:38:12.561Z,2.5
2024-04-09T06:39:26.799Z,2.6
2024-04-09T06:40:40.054Z,2.7
2024-04-09T06:41:54.292Z,2.7
2024-04-09T06:43:08.530Z,2.9
2024-04-09T06:44:22.768Z,2.6
2024-04-09T06:45:37.006Z,3.1
2024-04-09T06:46:51.245Z,3
2024-04-09T06:48:05.483Z,3
2024-04-09T06:49:19.721Z,2.8
2024-04-09T06:50:33.960Z,2.8
2024-04-09T06:51:48.198Z,2.8
2024-04-09T06:53:02.436Z,2.5
2024-04-09T06:54:16.674Z,2.7
2024-04-09T06:55:30.912Z,2.5
2024-04-09T06:56:44.167Z,2.4
2024-04-09T06:57:58.405Z,2.7
2024-04-09T06:59:12.643Z,2.7
2024-04-09T07:00:26.882Z,2.3
2024-04-09T07:01:41.120Z,2.7
2024-04-09T07:02:55.358Z,2.6
2024-04-09T07:04:08.617Z,2.5
2024-04-09T07:05:22.856Z,2.8
2024-04-09T07:06:37.094Z,2.5
2024-04-09T07:07:51.332Z,2.7
2024-04-09T07:09:05.570Z,2.6
2024-04-09T07:10:19.808Z,2.5
2024-04-09T07:11:34.047Z,2.8
2024-04-09T07:12:48.285Z,2.4
2024-04-09T07:14:02.523Z,2.6
2024-04-09T07:15:16.761Z,2.5
2024-04-09T07:16:30.999Z,2.4
2024-04-09T07:17:45.238Z,2.5
2024-04-09T07:18:59.476Z,2.3
2024-04-09T07:20:12.730Z,2.6
2024-04-09T07:21:26.968Z,2.3
2024-04-09T07:22:41.207Z,2.7
2024-04-09T07:23:55.445Z,2.5
2024-04-09T07:25:09.683Z,2.4
2024-04-09T07:26:23.921Z,2.6
2024-04-09T07:27:38.159Z,2.5
2024-04-09T07:28:52.398Z,2.5
2024-04-09T07:30:06.636Z,2.6
2024-04-09T07:31:20.874Z,2.6
2024-04-09T07:32:35.112Z,2.5
2024-04-09T07:33:49.351Z,2.5
2024-04-09T07:35:03.589Z,2.4
2024-04-09T07:36:16.843Z,2.9
2024-04-09T07:37:31.081Z,2.5
2024-04-09T07:38:45.319Z,2.5
2024-04-09T07:39:59.558Z,2.6
2024-04-09T07:41:13.796Z,3.1
2024-04-09T07:42:28.034Z,2.5
2024-04-09T07:43:42.272Z,2.5
2024-04-09T07:44:56.510Z,2.7
2024-04-09T07:46:10.750Z,2.5
2024-04-09T07:47:24.988Z,2.6
2024-04-09T07:48:39.226Z,3.2
2024-04-09T07:49:53.464Z,2.6
2024-04-09T07:51:07.702Z,2.6
2024-04-09T07:52:20.956Z,3
2024-04-09T07:53:35.195Z,2.4
2024-04-09T07:54:49.433Z,2.4
2024-04-09T07:56:03.671Z,2.5
2024-04-09T07:57:17.910Z,2.6
2024-04-09T07:58:32.148Z,2.3
2024-04-09T07:59:46.386Z,2.4
2024-04-09T08:01:00.624Z,2.4
2024-04-09T08:02:14.862Z,2.6
2024-04-09T08:03:29.100Z,2.4
2024-04-09T08:04:43.339Z,2.6
2024-04-09T08:05:57.577Z,2.7
2024-04-09T08:07:11.815Z,2.5
2024-04-09T08:08:25.070Z,2.8
2024-04-09T08:09:39.308Z,2.7
2024-04-09T08:10:53.546Z,2.6
2024-04-09T08:12:07.785Z,2.4
2024-04-09T08:13:22.023Z,2.4
2024-04-09T08:14:36.261Z,2.5
2024-04-09T08:15:50.500Z,2.5
2024-04-09T08:17:04.738Z,2.5
2024-04-09T08:18:18.976Z,2.9
2024-04-09T08:19:33.215Z,2.5
2024-04-09T08:20:47.453Z,2.5
2024-04-09T08:22:01.691Z,2.5
2024-04-09T08:23:15.929Z,2.5
2024-04-09T08:24:29.184Z,2.7
2024-04-09T08:25:43.422Z,3.2
2024-04-09T08:26:57.660Z,3
2024-04-09T08:28:11.899Z,3.3
2024-04-09T08:29:26.137Z,2.7
2024-04-09T08:30:40.375Z,2.6
2024-04-09T08:31:54.613Z,2.7
2024-04-09T08:33:08.851Z,2.6
2024-04-09T08:34:23.090Z,2.7
2024-04-09T08:35:37.328Z,2.6
2024-04-09T08:36:51.566Z,2.7
2024-04-09T08:38:05.806Z,2.7
2024-04-09T08:39:20.044Z,2.6
2024-04-09T08:40:33.298Z,2.8
2024-04-09T08:41:47.536Z,2.7
2024-04-09T08:43:01.774Z,2.8
2024-04-09T08:44:16.013Z,2.7
2024-04-09T08:45:30.251Z,3.5
2024-04-09T08:46:44.489Z,2.8
2024-04-09T08:47:58.727Z,2.9
2024-04-09T08:49:12.966Z,2.3
2024-04-09T08:50:27.204Z,2.7
2024-04-09T08:51:41.442Z,2.7
2024-04-09T08:52:55.680Z,2.9
2024-04-09T08:54:09.918Z,2.6
2024-04-09T08:55:24.156Z,3.1
2024-04-09T08:56:37.411Z,2.5
2024-04-09T08:57:51.649Z,2.5
2024-04-09T08:59:05.887Z,2.6
2024-04-09T09:00:20.125Z,3
2024-04-09T09:01:34.364Z,2.7
2024-04-09T09:02:48.602Z,3.7
2024-04-09T09:04:02.840Z,3.1
2024-04-09T09:05:17.078Z,2.8
2024-04-09T09:06:31.316Z,3
2024-04-09T09:07:45.554Z,2.8
2024-04-09T09:08:59.793Z,2.7
2024-04-09T09:10:14.031Z,2.9
2024-04-09T09:11:28.269Z,3.3
2024-04-09T09:12:41.524Z,2.8
2024-04-09T09:13:55.762Z,3
2024-04-09T09:15:09.984Z,2.8
2024-04-09T09:16:24.239Z,3.1
2024-04-09T09:17:38.477Z,3.2
2024-04-09T09:18:52.715Z,3.2
2024-04-09T09:20:06.954Z,3.4
2024-04-09T09:21:21.192Z,3.2
2024-04-09T09:22:35.430Z,3.2
2024-04-09T09:23:49.668Z,3
2024-04-09T09:25:03.907Z,4.3
2024-04-09T09:26:18.145Z,3.3
2024-04-09T09:27:32.383Z,3
2024-04-09T09:28:45.637Z,3.1
2024-04-09T09:29:59.876Z,3.3
2024-04-09T09:31:14.114Z,3.3
2024-04-09T09:32:28.353Z,3
2024-04-09T09:33:42.591Z,2.7
2024-04-09T09:34:56.829Z,3.1
2024-04-09T09:36:11.067Z,2.8
2024-04-09T09:37:25.306Z,2.7
2024-04-09T09:38:39.544Z,3.1
2024-04-09T09:39:53.782Z,3.7
2024-04-09T09:41:08.021Z,4.3
2024-04-09T09:42:22.259Z,3.1
2024-04-09T09:43:36.497Z,2.8
2024-04-09T09:44:49.752Z,2.8
2024-04-09T09:46:03.990Z,3.1
2024-04-09T09:47:18.228Z,2.8
2024-04-09T09:48:32.467Z,3.1
2024-04-09T09:49:46.705Z,3.1
2024-04-09T09:51:00.943Z,2.9
2024-04-09T09:52:15.182Z,2.9
2024-04-09T09:53:29.421Z,2.9
2024-04-09T09:54:43.659Z,3.1
2024-04-09T09:55:57.897Z,2.9
2024-04-09T09:57:12.122Z,2.9
2024-04-09T09:58:26.374Z,2.7
2024-04-09T09:59:40.612Z,3.3
2024-04-09T10:00:53.867Z,2.5
2024-04-09T10:02:08.105Z,2.9
2024-04-09T10:03:22.343Z,2.9
2024-04-09T10:04:36.582Z,3.2
2024-04-09T10:05:50.820Z,3.4
2024-04-09T10:07:05.058Z,2.8
2024-04-09T10:08:19.296Z,2.9
2024-04-09T10:09:33.535Z,3.5
2024-04-09T10:10:47.773Z,2.8
2024-04-09T10:12:02.011Z,2.9
2024-04-09T10:13:16.250Z,2.8
2024-04-09T10:14:30.488Z,2.9
2024-04-09T10:15:44.726Z,2.8
2024-04-09T10:16:57.981Z,3.4
2024-04-09T10:18:12.219Z,2.8
2024-04-09T10:19:26.444Z,2.9
2024-04-09T10:20:40.695Z,3.1
2024-04-09T10:21:54.934Z,2.7
2024-04-09T10:23:09.172Z,3.4
2024-04-09T10:24:23.411Z,3.6
2024-04-09T10:25:37.649Z,3
2024-04-09T10:26:51.887Z,3.1
2024-04-09T10:28:06.126Z,3.1
2024-04-09T10:29:20.364Z,3.3
2024-04-09T10:30:34.602Z,3
2024-04-09T10:31:48.841Z,3.6
2024-04-09T10:33:02.095Z,3
2024-04-09T10:34:16.333Z,3
2024-04-09T10:35:30.572Z,3
2024-04-09T10:36:44.810Z,3.2
2024-04-09T10:37:59.049Z,3.2
2024-04-09T10:39:13.287Z,4.7
2024-04-09T10:40:27.525Z,2.9
2024-04-09T10:41:41.764Z,3
2024-04-09T10:42:56.002Z,3.5
2024-04-09T10:44:10.240Z,2.9
2024-04-09T10:45:24.479Z,3
2024-04-09T10:46:38.717Z,3.7
2024-04-09T10:47:52.955Z,2.9
2024-04-09T10:49:06.210Z,3
2024-04-09T10:50:20.448Z,3
2024-04-09T10:51:34.687Z,2.9
2024-04-09T10:52:48.925Z,3.1
2024-04-09T10:54:03.163Z,3.7
2024-04-09T10:55:17.401Z,3.4
2024-04-09T10:56:31.640Z,3.6
2024-04-09T10:57:45.878Z,3.2
2024-04-09T10:59:00.117Z,3
2024-04-09T11:00:14.355Z,3.3
2024-04-09T11:01:28.593Z,2.9
2024-04-09T11:02:42.831Z,2.8
2024-04-09T11:03:57.070Z,2.9
2024-04-09T11:05:10.324Z,3.2
2024-04-09T11:06:24.563Z,3.1
2024-04-09T11:07:38.801Z,3.4
2024-04-09T11:08:53.039Z,2.8
2024-04-09T11:10:07.278Z,2.8
2024-04-09T11:11:21.516Z,3.6
2024-04-09T11:12:34.776Z,3.1
2024-04-09T11:13:49.014Z,2.9
2024-04-09T11:15:03.253Z,3.3
2024-04-09T11:16:17.492Z,3
2024-04-09T11:17:31.730Z,3.4
2024-04-09T11:18:45.968Z,3.3
2024-04-09T11:20:00.207Z,3.2
2024-04-09T11:21:14.445Z,2.8
2024-04-09T11:22:28.683Z,2.9
2024-04-09T11:23:42.921Z,3.2
2024-04-09T11:24:57.160Z,3.6
2024-04-09T11:26:11.398Z,2.8
2024-04-09T11:27:25.636Z,2.6
2024-04-09T11:28:38.891Z,3.1
2024-04-09T11:29:53.129Z,3.2
2024-04-09T11:31:07.367Z,3.1
2024-04-09T11:32:21.606Z,2.8
2024-04-09T11:33:35.844Z,3
2024-04-09T11:34:50.082Z,3.3
2024-04-09T11:36:04.320Z,2.7
2024-04-09T11:37:18.559Z,2.9
2024-04-09T11:38:32.798Z,2.8
2024-04-09T11:39:47.037Z,2.9
2024-04-09T11:41:01.275Z,3.4
2024-04-09T11:42:15.513Z,3.5
2024-04-09T11:43:29.751Z,3.1
2024-04-09T11:44:43.006Z,3.1
2024-04-09T11:45:57.244Z,3.1
2024-04-09T11:47:11.482Z,2.8
2024-04-09T11:48:25.720Z,3.2
2024-04-09T11:49:39.959Z,3
2024-04-09T11:50:54.197Z,2.6
2024-04-09T11:52:08.436Z,3.2
2024-04-09T11:53:22.674Z,4
2024-04-09T11:54:36.912Z,3.3
2024-04-09T11:55:51.150Z,3
2024-04-09T11:57:05.389Z,3
2024-04-09T11:58:19.627Z,3.4
2024-04-09T11:59:33.865Z,3.8
2024-04-09T12:00:47.120Z,2.9
2024-04-09T12:02:01.358Z,3
2024-04-09T12:03:15.597Z,3.2
2024-04-09T12:04:29.835Z,3.5
2024-04-09T12:05:44.073Z,3.4
2024-04-09T12:06:58.312Z,3.2
2024-04-09T12:08:12.550Z,3
2024-04-09T12:09:26.788Z,3
2024-04-09T12:10:41.026Z,3
2024-04-09T12:11:55.265Z,3.1
2024-04-09T12:13:09.503Z,3.4
2024-04-09T12:14:23.742Z,3.5
2024-04-09T12:15:37.980Z,3.2
2024-04-09T12:16:51.234Z,2.9
2024-04-09T12:18:05.473Z,2.8
2024-04-09T12:19:19.711Z,3.7
2024-04-09T12:20:33.949Z,3
2024-04-09T12:21:48.188Z,2.8
2024-04-09T12:23:02.427Z,2.8
2024-04-09T12:24:16.665Z,2.8
2024-04-09T12:25:30.904Z,3.2
2024-04-09T12:26:45.142Z,2.5
2024-04-09T12:27:59.380Z,2.8
2024-04-09T12:29:13.619Z,3.2
2024-04-09T12:30:27.857Z,2.8
2024-04-09T12:31:42.095Z,3.1
2024-04-09T12:32:55.350Z,2.6
2024-04-09T12:34:09.588Z,2.5
2024-04-09T12:35:23.827Z,2.6
2024-04-09T12:36:38.065Z,2.5
2024-04-09T12:37:52.303Z,2.7
2024-04-09T12:39:06.542Z,3.1
2024-04-09T12:40:20.780Z,2.7
2024-04-09T12:41:35.019Z,2.5
2024-04-09T12:42:49.257Z,2.5
2024-04-09T12:44:03.496Z,3.1
2024-04-09T12:45:17.734Z,2.8
2024-04-09T12:46:31.973Z,2.4
2024-04-09T12:47:46.211Z,2.8
2024-04-09T12:48:59.465Z,2.4
2024-04-09T12:50:13.704Z,2.9
2024-04-09T12:51:27.943Z,3
2024-04-09T12:52:42.181Z,2.5
2024-04-09T12:53:56.419Z,3.6
2024-04-09T12:55:10.658Z,3.4
2024-04-09T12:56:24.896Z,2.8
2024-04-09T12:57:39.135Z,2.7
2024-04-09T12:58:53.373Z,2.7
2024-04-09T13:00:07.611Z,2.7
2024-04-09T13:01:21.849Z,3
2024-04-09T13:02:36.088Z,3.1
2024-04-09T13:03:50.326Z,2.9
2024-04-09T13:05:03.581Z,2.5
2024-04-09T13:06:17.819Z,2.5
2024-04-09T13:07:32.057Z,2.9
2024-04-09T13:08:46.296Z,2.4
2024-04-09T13:10:00.534Z,2.6
2024-04-09T13:11:14.772Z,2.3
2024-04-09T13:12:29.011Z,2.4
2024-04-09T13:13:43.249Z,2.5
2024-04-09T13:14:57.487Z,2
2024-04-09T13:16:11.726Z,2.9
2024-04-09T13:17:25.947Z,2.7
2024-04-09T13:18:40.202Z,2.3
2024-04-09T13:19:54.441Z,2.6
2024-04-09T13:21:07.695Z,2.4
2024-04-09T13:22:21.933Z,2.2
2024-04-09T13:23:36.172Z,3.1
2024-04-09T13:24:50.411Z,2.6
2024-04-09T13:26:04.649Z,2.6
2024-04-09T13:27:18.888Z,2.6
2024-04-09T13:28:33.126Z,2.4
2024-04-09T13:29:47.364Z,2.9
2024-04-09T13:31:01.602Z,2.5
2024-04-09T13:32:15.840Z,2.6
2024-04-09T13:33:30.079Z,2.4
2024-04-09T13:34:44.317Z,2.7
2024-04-09T13:35:58.555Z,2.1
2024-04-09T13:37:11.810Z,2.7
2024-04-09T13:38:26.048Z,2.6
2024-04-09T13:39:40.287Z,2.8
2024-04-09T13:40:54.525Z,2.6
2024-04-09T13:42:08.763Z,2.6
2024-04-09T13:43:23.001Z,2.1
2024-04-09T13:44:37.240Z,2.9
2024-04-09T13:45:51.478Z,2
2024-04-09T13:47:05.716Z,2.5
2024-04-09T13:48:19.954Z,2.2
2024-04-09T13:49:34.193Z,1.9
2024-04-09T13:50:48.431Z,2.2
2024-04-09T13:52:02.669Z,2.2
2024-04-09T13:53:15.923Z,2.8
2024-04-09T13:54:30.161Z,3.1
2024-04-09T13:55:44.399Z,2.5
2024-04-09T13:56:58.637Z,2.6
2024-04-09T13:58:12.876Z,2.6
2024-04-09T13:59:27.114Z,2.1
2024-04-09T14:00:41.352Z,2.6
2024-04-09T14:01:55.591Z,2.3
2024-04-09T14:03:09.829Z,2.1
2024-04-09T14:04:24.067Z,2.7
2024-04-09T14:05:38.305Z,2.1
2024-04-09T14:06:52.543Z,2.5
2024-04-09T14:08:06.782Z,2.1
2024-04-09T14:09:20.036Z,2.2
2024-04-09T14:10:34.275Z,1.9
2024-04-09T14:11:48.513Z,2.4
2024-04-09T14:13:02.751Z,2.7
2024-04-09T14:14:16.989Z,2.4
2024-04-09T14:15:31.227Z,2.1
2024-04-09T14:16:45.466Z,2.8
2024-04-09T14:17:59.704Z,2.2
2024-04-09T14:19:13.942Z,2.5
2024-04-09T14:20:28.181Z,2.3
2024-04-09T14:21:42.419Z,2.9
2024-04-09T14:22:56.657Z,2.4
2024-04-09T14:24:10.895Z,2.1
2024-04-09T14:25:24.150Z,2.2
2024-04-09T14:26:38.388Z,2.5
2024-04-09T14:27:52.627Z,2.8
2024-04-09T14:29:06.865Z,2.8
2024-04-09T14:30:21.103Z,2.3
2024-04-09T14:31:35.342Z,2.4
2024-04-09T14:32:49.580Z,2.7
2024-04-09T14:34:03.818Z,2.2
2024-04-09T14:35:18.056Z,2.6
2024-04-09T14:36:32.294Z,2.5
2024-04-09T14:37:46.532Z,2.9
2024-04-09T14:39:00.770Z,2.8
2024-04-09T14:40:15.009Z,2.5
2024-04-09T14:41:28.263Z,2.6
2024-04-09T14:42:42.501Z,2.5
2024-04-09T14:43:56.739Z,2.2
2024-04-09T14:45:10.977Z,2.2
2024-04-09T14:46:25.215Z,2.8
2024-04-09T14:47:39.453Z,2.6
2024-04-09T14:48:53.692Z,2.4
2024-04-09T14:50:07.931Z,2.5
2024-04-09T14:51:22.169Z,2.9
2024-04-09T14:52:36.407Z,2.5
2024-04-09T14:53:50.645Z,2.3
2024-04-09T14:55:04.883Z,2.7
2024-04-09T14:56:19.121Z,2.9
2024-04-09T14:57:32.376Z,2.5
2024-04-09T14:58:46.614Z,2.3
2024-04-09T15:00:00.852Z,2.7
2024-04-09T15:01:15.090Z,2.4
2024-04-09T15:02:29.328Z,2.3
2024-04-09T15:03:43.567Z,2.5
2024-04-09T15:04:57.805Z,3.5
2024-04-09T15:06:12.043Z,2.6
2024-04-09T15:07:26.282Z,3.3
2024-04-09T15:08:40.520Z,2.1
2024-04-09T15:09:54.758Z,1.8
2024-04-09T15:11:08.997Z,1.7
2024-04-09T15:12:23.235Z,1.7
2024-04-09T15:13:36.489Z,1.4
2024-04-09T15:14:50.728Z,1.3
2024-04-09T15:16:04.966Z,1.4
2024-04-09T15:17:19.204Z,1.3
2024-04-09T15:18:33.442Z,1.2
2024-04-09T15:19:47.681Z,1.6
2024-04-09T15:21:00.940Z,1.3
2024-04-09T15:22:15.178Z,1.4
2024-04-09T15:23:29.417Z,2.1
2024-04-09T15:24:43.655Z,1.2
2024-04-09T15:25:57.893Z,1.3
2024-04-09T15:27:12.132Z,1.4
2024-04-09T15:28:26.370Z,1.4
2024-04-09T15:29:40.608Z,1.3
2024-04-09T15:30:54.830Z,1.5
2024-04-09T15:32:09.084Z,1.3
2024-04-09T15:33:23.322Z,1.4
2024-04-09T15:34:37.561Z,1.5
2024-04-09T15:35:51.799Z,1.3
2024-04-09T15:37:05.053Z,1.4
2024-04-09T15:38:19.291Z,1.8
2024-04-09T15:39:33.530Z,1.3
2024-04-09T15:40:47.768Z,1.6
2024-04-09T15:42:02.006Z,1.2
2024-04-09T15:43:16.244Z,1.4
2024-04-09T15:44:30.482Z,1.1
2024-04-09T15:45:44.720Z,1.2
2024-04-09T15:46:58.959Z,1.1
2024-04-09T15:48:13.197Z,1.2
2024-04-09T15:49:27.435Z,1.2
2024-04-09T15:50:41.673Z,1.1
2024-04-09T15:51:55.911Z,1.2
2024-04-09T15:53:09.165Z,1.3
2024-04-09T15:54:23.404Z,1.3
2024-04-09T15:55:37.642Z,1.1
2024-04-09T15:56:51.880Z,1.1
2024-04-09T15:58:06.119Z,1.1
2024-04-09T15:59:20.358Z,1.2
2024-04-09T16:00:34.596Z,1.2
2024-04-09T16:01:48.834Z,1.2
2024-04-09T16:03:03.072Z,1.2
2024-04-09T16:04:17.310Z,1.4
2024-04-09T16:05:31.548Z,1.1
2024-04-09T16:06:45.787Z,1.1
2024-04-09T16:08:00.025Z,1.2
2024-04-09T16:09:13.279Z,1.1
2024-04-09T16:10:27.518Z,1.1
2024-04-09T16:11:41.756Z,1.1
2024-04-09T16:12:55.994Z,1
2024-04-09T16:14:10.232Z,1
2024-04-09T16:15:24.470Z,1.1
2024-04-09T16:16:38.708Z,1.1
2024-04-09T16:17:52.946Z,1
2024-04-09T16:19:07.185Z,1
2024-04-09T16:20:21.423Z,1
2024-04-09T16:21:35.661Z,1
2024-04-09T16:22:49.900Z,0.9
2024-04-09T16:24:04.138Z,1
2024-04-09T16:25:17.393Z,1
2024-04-09T16:26:31.631Z,0.9
2024-04-09T16:27:45.869Z,0.8
2024-04-09T16:29:00.107Z,0.8
2024-04-09T16:30:14.345Z,0.9
2024-04-09T16:31:28.584Z,0.9
2024-04-09T16:32:42.822Z,0.9
2024-04-09T16:33:57.060Z,1
2024-04-09T16:35:11.298Z,1
2024-04-09T16:36:25.536Z,0.9
2024-04-09T16:37:39.774Z,1
2024-04-09T16:38:54.012Z,0.9
2024-04-09T16:40:08.251Z,0.9
2024-04-09T16:41:21.505Z,0.8
2024-04-09T16:42:35.743Z,1.1
2024-04-09T16:43:49.982Z,0.9
2024-04-09T16:45:04.220Z,1
2024-04-09T16:46:18.458Z,0.9
2024-04-09T16:47:32.696Z,0.9
2024-04-09T16:48:46.934Z,0.8
2024-04-09T16:50:01.172Z,0.9
2024-04-09T16:51:15.411Z,1
2024-04-09T16:52:29.649Z,0.9
2024-04-09T16:53:43.887Z,0.9
2024-04-09T16:54:58.126Z,0.9
2024-04-09T16:56:12.364Z,1
2024-04-09T16:57:25.618Z,0.9
2024-04-09T16:58:39.856Z,0.7
2024-04-09T16:59:54.095Z,0.9
2024-04-09T17:01:08.333Z,0.9
2024-04-09T17:02:22.571Z,0.8
2024-04-09T17:03:36.810Z,0.8
2024-04-09T17:04:51.048Z,0.9
2024-04-09T17:06:05.286Z,1
2024-04-09T17:07:19.524Z,0.9
2024-04-09T17:08:33.762Z,0.7
2024-04-09T17:09:48.001Z,0.9